createdAt,value
2022-09-11T00:00:04.754Z,23.03
2022-09-11T00:02:39.335Z,23.00
2022-09-11T00:05:05.739Z,23.00
2022-09-11T00:07:32.054Z,23.02
2022-09-11T00:09:58.366Z,23.02
2022-09-11T00:12:24.703Z,23.04
2022-09-11T00:14:51.732Z,23.01
2022-09-11T00:17:18.303Z,23.03
2022-09-11T00:19:44.641Z,23.03
2022-09-11T00:22:11.472Z,23.03
2022-09-11T00:24:37.786Z,23.05
2022-09-11T00:27:04.100Z,23.05
2022-09-11T00:29:30.901Z,23.04
2022-09-11T00:31:57.733Z,23.04
2022-09-11T00:34:24.058Z,23.03
2022-09-11T00:36:52.232Z,23.03
2022-09-11T00:39:18.574Z,23.03
2022-09-11T00:41:46.079Z,23.04
2022-09-11T00:44:12.598Z,23.03
2022-09-11T00:46:40.443Z,23.02
2022-09-11T00:49:14.394Z,23.03
2022-09-11T00:51:41.173Z,23.02
2022-09-11T00:54:08.803Z,23.02
2022-09-11T00:56:35.916Z,23.01
2022-09-11T00:59:02.254Z,23.01
2022-09-11T01:01:28.578Z,23.00
2022-09-11T01:03:56.013Z,23.00
2022-09-11T01:06:22.610Z,23.00
2022-09-11T01:08:49.322Z,23.00
2022-09-11T01:11:28.170Z,23.02
2022-09-11T01:13:54.426Z,23.00
2022-09-11T01:16:27.737Z,23.00
2022-09-11T01:19:12.767Z,22.99
2022-09-11T01:21:52.196Z,22.99
2022-09-11T01:24:41.505Z,22.98
2022-09-11T01:27:10.398Z,22.95
2022-09-11T01:29:39.877Z,22.93
2022-09-11T01:32:11.658Z,22.93
2022-09-11T01:35:01.845Z,22.95
2022-09-11T01:37:31.175Z,22.94
2022-09-11T01:39:59.654Z,22.96
2022-09-11T01:42:26.003Z,22.95
2022-09-11T01:44:53.414Z,22.97
2022-09-11T01:47:19.762Z,22.96
2022-09-11T01:49:50.901Z,22.95
2022-09-11T01:52:27.986Z,22.97
2022-09-11T01:54:56.846Z,22.95
2022-09-11T01:57:43.742Z,22.96
2022-09-11T02:00:11.549Z,22.97
2022-09-11T02:02:52.386Z,22.94
2022-09-11T02:05:20.963Z,22.95
2022-09-11T02:07:58.259Z,22.95
2022-09-11T02:10:30.193Z,22.94
2022-09-11T02:12:58.125Z,22.94
2022-09-11T02:15:25.753Z,22.94
2022-09-11T02:17:58.202Z,22.93
2022-09-11T02:20:28.536Z,22.93
2022-09-11T02:22:54.895Z,22.93
2022-09-11T02:25:23.535Z,22.93
2022-09-11T02:27:54.550Z,22.92
2022-09-11T02:30:21.209Z,22.91
2022-09-11T02:32:47.655Z,22.92
2022-09-11T02:35:16.224Z,22.91
2022-09-11T02:37:45.981Z,22.91
2022-09-11T02:40:20.249Z,22.90
2022-09-11T02:42:56.799Z,22.90
2022-09-11T02:45:32.474Z,22.91
2022-09-11T02:48:05.757Z,22.91
2022-09-11T02:50:39.290Z,22.89
2022-09-11T02:53:11.483Z,22.89
2022-09-11T02:55:51.025Z,22.90
2022-09-11T02:58:26.884Z,22.90
2022-09-11T03:01:00.602Z,22.89
2022-09-11T03:03:27.082Z,22.88
2022-09-11T03:05:53.409Z,22.89
2022-09-11T03:08:20.351Z,22.89
2022-09-11T03:10:49.886Z,22.88
2022-09-11T03:13:16.744Z,22.86
2022-09-11T03:15:44.719Z,22.87
2022-09-11T03:18:15.598Z,22.88
2022-09-11T03:20:46.899Z,22.88
2022-09-11T03:23:13.453Z,22.87
2022-09-11T03:25:40.692Z,22.83
2022-09-11T03:28:10.377Z,22.85
2022-09-11T03:31:54.558Z,22.79
2022-09-11T03:34:17.999Z,22.81
2022-09-11T03:36:45.803Z,22.83
2022-09-11T03:39:13.458Z,22.85
2022-09-11T03:41:39.790Z,22.84
2022-09-11T03:44:06.144Z,22.85
2022-09-11T03:46:32.970Z,22.86
2022-09-11T03:48:59.737Z,22.86
2022-09-11T03:51:28.875Z,22.86
2022-09-11T03:53:55.409Z,22.86
2022-09-11T03:56:22.134Z,22.85
2022-09-11T03:58:48.947Z,22.85
2022-09-11T04:01:15.684Z,22.85
2022-09-11T04:03:42.605Z,22.85
2022-09-11T04:06:14.791Z,22.84
2022-09-11T04:08:41.298Z,22.84
2022-09-11T04:11:11.465Z,22.84
2022-09-11T04:13:38.714Z,22.84
2022-09-11T04:16:13.839Z,22.84
2022-09-11T04:18:41.516Z,22.83
2022-09-11T04:21:08.525Z,22.83
2022-09-11T04:23:35.054Z,22.82
2022-09-11T04:26:01.411Z,22.83
2022-09-11T04:28:28.386Z,22.83
2022-09-11T04:30:54.847Z,22.82
2022-09-11T04:33:21.797Z,22.82
2022-09-11T04:35:48.341Z,22.82
2022-09-11T04:38:15.267Z,22.82
2022-09-11T04:40:41.671Z,22.81
2022-09-11T04:43:08.093Z,22.81
2022-09-11T04:45:36.315Z,22.81
2022-09-11T04:48:04.254Z,22.79
2022-09-11T04:50:31.493Z,22.79
2022-09-11T04:53:12.154Z,22.80
2022-09-11T04:55:38.515Z,22.81
2022-09-11T04:58:05.583Z,22.79
2022-09-11T05:00:33.304Z,22.80
2022-09-11T05:02:59.913Z,22.79
2022-09-11T05:05:26.583Z,22.79
2022-09-11T05:07:52.918Z,22.79
2022-09-11T05:10:20.127Z,22.78
2022-09-11T05:12:47.039Z,22.78
2022-09-11T05:15:13.516Z,22.78
2022-09-11T05:17:40.266Z,22.79
2022-09-11T05:20:11.882Z,22.76
2022-09-11T05:22:38.564Z,22.77
2022-09-11T05:25:05.021Z,22.78
2022-09-11T05:27:31.380Z,22.76
2022-09-11T05:29:57.757Z,22.77
2022-09-11T05:32:24.151Z,22.77
2022-09-11T05:34:50.501Z,22.77
2022-09-11T05:37:19.811Z,22.77
2022-09-11T05:39:47.819Z,22.77
2022-09-11T05:42:15.748Z,22.67
2022-09-11T05:44:47.225Z,22.52
2022-09-11T05:47:14.283Z,22.65
2022-09-11T05:49:42.261Z,22.69
2022-09-11T05:52:10.242Z,22.73
2022-09-11T05:54:36.902Z,22.74
2022-09-11T05:57:07.811Z,22.75
2022-09-11T05:59:36.587Z,22.74
2022-09-11T06:02:03.030Z,22.76
2022-09-11T06:04:40.355Z,22.76
2022-09-11T06:07:07.934Z,22.77
2022-09-11T06:09:35.090Z,22.76
2022-09-11T06:12:01.737Z,22.77
2022-09-11T06:14:29.086Z,22.75
2022-09-11T06:16:57.131Z,22.75
2022-09-11T06:19:24.997Z,22.76
2022-09-11T06:21:51.408Z,22.77
2022-09-11T06:24:28.233Z,22.76
2022-09-11T06:26:56.067Z,22.77
2022-09-11T06:29:23.562Z,22.75
2022-09-11T06:31:51.372Z,22.73
2022-09-11T06:34:21.005Z,22.75
2022-09-11T06:36:51.841Z,22.76
2022-09-11T06:39:20.422Z,22.76
2022-09-11T06:41:46.794Z,22.76
2022-09-11T06:44:15.189Z,22.76
2022-09-11T06:46:41.583Z,22.76
2022-09-11T06:49:09.450Z,22.74
2022-09-11T06:51:55.742Z,22.68
2022-09-11T06:54:22.084Z,22.71
2022-09-11T06:56:48.412Z,22.73
2022-09-11T06:59:15.887Z,22.76
2022-09-11T07:01:42.487Z,22.74
2022-09-11T07:04:10.370Z,22.75
2022-09-11T07:06:38.513Z,22.76
2022-09-11T07:09:05.036Z,22.75
2022-09-11T07:11:43.786Z,22.75
2022-09-11T07:14:10.318Z,22.75
2022-09-11T07:16:39.484Z,22.75
2022-09-11T07:19:10.347Z,22.75
2022-09-11T07:21:38.427Z,22.75
2022-09-11T07:24:05.694Z,22.73
2022-09-11T07:26:36.386Z,22.73
2022-09-11T07:29:08.162Z,22.75
2022-09-11T07:31:34.615Z,22.75
2022-09-11T07:34:02.665Z,22.74
2022-09-11T07:36:30.110Z,22.75
2022-09-11T07:38:57.122Z,22.74
2022-09-11T07:41:31.569Z,22.74
2022-09-11T07:44:03.298Z,22.75
2022-09-11T07:46:32.839Z,22.75
2022-09-11T07:49:03.437Z,22.75
2022-09-11T07:51:30.227Z,22.75
2022-09-11T07:54:01.212Z,22.75
2022-09-11T07:56:31.141Z,22.75
2022-09-11T07:59:01.405Z,22.72
2022-09-11T08:01:29.649Z,22.72
2022-09-11T08:03:58.158Z,22.73
2022-09-11T08:06:27.189Z,22.75
2022-09-11T08:08:54.286Z,22.68
2022-09-11T08:11:21.312Z,22.71
2022-09-11T08:13:50.745Z,22.75
2022-09-11T08:16:19.358Z,22.71
2022-09-11T08:18:45.831Z,22.70
2022-09-11T08:21:13.933Z,22.54
2022-09-11T08:23:41.084Z,22.53
2022-09-11T08:26:12.981Z,22.44
2022-09-11T08:28:43.061Z,22.37
2022-09-11T08:31:09.883Z,22.53
2022-09-11T08:33:36.381Z,22.35
2022-09-11T08:36:06.393Z,22.47
2022-09-11T08:38:33.388Z,22.45
2022-09-11T08:41:07.972Z,22.34
2022-09-11T08:43:35.127Z,22.29
2022-09-11T08:46:04.701Z,22.36
2022-09-11T08:48:35.730Z,22.39
2022-09-11T08:51:02.062Z,22.54
2022-09-11T08:53:30.401Z,22.46
2022-09-11T08:56:00.316Z,22.29
2022-09-11T08:58:33.538Z,22.38
2022-09-11T09:01:13.943Z,22.28
2022-09-11T09:03:44.348Z,22.21
2022-09-11T09:06:21.170Z,22.38
2022-09-11T09:09:10.973Z,22.36
2022-09-11T09:11:42.681Z,22.56
2022-09-11T09:14:29.154Z,22.34
2022-09-11T09:16:58.380Z,22.33
2022-09-11T09:19:35.070Z,22.44
2022-09-11T09:22:03.418Z,22.44
2022-09-11T09:24:32.772Z,22.45
2022-09-11T09:26:59.377Z,22.31
2022-09-11T09:29:28.509Z,22.33
2022-09-11T09:32:01.976Z,22.43
2022-09-11T09:34:30.910Z,22.50
2022-09-11T09:37:04.277Z,22.41
2022-09-11T09:39:30.639Z,22.36
2022-09-11T09:42:05.082Z,22.36
2022-09-11T09:44:51.182Z,22.41
2022-09-11T09:47:17.500Z,22.37
2022-09-11T09:49:43.823Z,22.45
2022-09-11T09:52:17.025Z,22.43
2022-09-11T09:54:43.403Z,22.45
2022-09-11T09:57:10.520Z,22.41
2022-09-11T09:59:40.858Z,22.34
2022-09-11T10:02:07.736Z,22.35
2022-09-11T10:04:34.140Z,22.44
2022-09-11T10:07:14.090Z,22.37
2022-09-11T10:09:45.420Z,22.35
2022-09-11T10:12:21.687Z,22.37
2022-09-11T10:14:52.474Z,22.39
2022-09-11T10:17:19.429Z,22.37
2022-09-11T10:19:46.600Z,22.39
2022-09-11T10:22:29.067Z,22.29
2022-09-11T10:25:11.626Z,22.33
2022-09-11T10:27:52.572Z,22.36
2022-09-11T10:30:32.067Z,22.38
2022-09-11T10:33:02.710Z,22.39
2022-09-11T10:35:30.018Z,22.38
2022-09-11T10:38:08.815Z,22.36
2022-09-11T10:40:35.184Z,22.34
2022-09-11T10:43:01.503Z,22.33
2022-09-11T10:45:27.918Z,22.31
2022-09-11T10:47:54.276Z,22.33
2022-09-11T10:50:21.814Z,22.39
2022-09-11T10:53:03.390Z,22.41
2022-09-11T10:55:30.813Z,22.41
2022-09-11T10:57:59.337Z,22.42
2022-09-11T11:00:27.126Z,22.42
2022-09-11T11:02:56.114Z,22.42
2022-09-11T11:05:24.546Z,22.42
2022-09-11T11:08:06.420Z,22.43
2022-09-11T11:10:39.801Z,22.47
2022-09-11T11:13:11.039Z,22.46
2022-09-11T11:15:40.606Z,22.46
2022-09-11T11:18:18.935Z,22.46
2022-09-11T11:20:52.749Z,22.43
2022-09-11T11:23:45.517Z,22.63
2022-09-11T11:26:11.770Z,22.73
2022-09-11T11:28:41.028Z,22.89
2022-09-11T11:31:27.526Z,22.94
2022-09-11T11:34:03.011Z,22.97
2022-09-11T11:36:34.532Z,22.96
2022-09-11T11:39:02.027Z,23.05
2022-09-11T11:41:35.995Z,22.98
2022-09-11T11:44:02.806Z,22.98
2022-09-11T11:46:30.263Z,22.95
2022-09-11T11:48:58.724Z,22.96
2022-09-11T11:51:29.637Z,22.97
2022-09-11T11:54:03.715Z,23.08
2022-09-11T11:56:35.106Z,22.91
2022-09-11T11:59:04.117Z,23.04
2022-09-11T12:01:41.007Z,23.08
2022-09-11T12:04:26.383Z,23.12
2022-09-11T12:06:52.959Z,23.15
2022-09-11T12:09:19.476Z,23.20
2022-09-11T12:11:46.710Z,23.14
2022-09-11T12:14:26.121Z,23.12
2022-09-11T12:16:52.438Z,23.05
2022-09-11T12:19:19.840Z,22.98
2022-09-11T12:21:52.270Z,23.15
2022-09-11T12:24:19.799Z,23.07
2022-09-11T12:26:46.216Z,23.18
2022-09-11T12:29:13.715Z,23.31
2022-09-11T12:31:49.188Z,23.28
2022-09-11T12:34:18.712Z,23.24
2022-09-11T12:36:54.310Z,23.21
2022-09-11T12:39:24.808Z,23.24
2022-09-11T12:41:51.154Z,23.14
2022-09-11T12:44:43.609Z,23.03
2022-09-11T12:47:11.154Z,23.08
2022-09-11T12:49:37.537Z,23.00
2022-09-11T12:52:03.850Z,22.97
2022-09-11T12:54:39.985Z,21.53
2022-09-11T12:57:06.830Z,22.53
2022-09-11T12:59:38.523Z,22.73
2022-09-11T13:02:05.847Z,22.70
2022-09-11T13:04:32.297Z,22.71
2022-09-11T13:06:59.372Z,22.81
2022-09-11T13:09:29.446Z,22.82
2022-09-11T13:11:56.413Z,22.83
2022-09-11T13:14:29.761Z,22.70
2022-09-11T13:16:56.426Z,22.69
2022-09-11T13:19:22.838Z,22.69
2022-09-11T13:21:52.135Z,22.78
2022-09-11T13:24:25.487Z,22.65
2022-09-11T13:26:55.318Z,22.79
2022-09-11T13:29:26.664Z,22.74
2022-09-11T13:31:52.983Z,22.68
2022-09-11T13:34:20.095Z,22.88
2022-09-11T13:36:48.578Z,22.96
2022-09-11T13:39:14.898Z,22.80
2022-09-11T13:41:44.340Z,22.95
2022-09-11T13:44:25.320Z,22.92
2022-09-11T13:46:51.775Z,22.92
2022-09-11T13:49:18.034Z,22.94
2022-09-11T13:51:44.922Z,22.96
2022-09-11T13:54:18.311Z,23.13
2022-09-11T13:56:56.834Z,23.34
2022-09-11T13:59:39.818Z,23.38
2022-09-11T14:02:08.507Z,23.31
2022-09-11T14:04:38.465Z,23.40
2022-09-11T14:07:12.002Z,23.24
2022-09-11T14:09:38.324Z,23.23
2022-09-11T14:12:04.743Z,23.23
2022-09-11T14:14:31.253Z,23.31
2022-09-11T14:16:59.061Z,23.34
2022-09-11T14:19:26.174Z,23.35
2022-09-11T14:21:52.468Z,23.35
2022-09-11T14:24:24.520Z,23.38
2022-09-11T14:26:50.846Z,23.39
2022-09-11T14:29:20.104Z,23.39
2022-09-11T14:31:46.904Z,23.39
2022-09-11T14:34:25.347Z,23.09
2022-09-11T14:36:52.972Z,23.15
2022-09-11T14:39:22.442Z,23.35
2022-09-11T14:41:48.758Z,23.27
2022-09-11T14:44:15.603Z,23.55
2022-09-11T14:46:42.152Z,23.50
2022-09-11T14:49:09.433Z,23.56
2022-09-11T14:51:36.602Z,23.41
2022-09-11T14:54:02.986Z,23.46
2022-09-11T14:56:29.329Z,23.22
2022-09-11T14:58:55.672Z,23.14
2022-09-11T15:01:22.025Z,22.95
2022-09-11T15:03:48.460Z,22.89
2022-09-11T15:06:16.147Z,22.88
2022-09-11T15:08:42.955Z,22.89
2022-09-11T15:11:09.262Z,22.89
2022-09-11T15:13:35.802Z,22.89
2022-09-11T15:16:02.381Z,22.83
2022-09-11T15:18:28.726Z,22.79
2022-09-11T15:20:55.036Z,22.78
2022-09-11T15:23:21.376Z,22.81
2022-09-11T15:25:47.693Z,22.87
2022-09-11T15:28:14.151Z,22.79
2022-09-11T15:30:41.563Z,22.74
2022-09-11T15:33:07.874Z,22.77
2022-09-11T15:35:34.190Z,22.78
2022-09-11T15:38:00.517Z,22.77
2022-09-11T15:40:26.900Z,22.79
2022-09-11T15:42:53.676Z,22.74
2022-09-11T15:45:20.218Z,22.72
2022-09-11T15:47:47.180Z,22.71
2022-09-11T15:50:18.069Z,22.69
2022-09-11T15:52:44.886Z,22.68
2022-09-11T15:55:11.190Z,22.69
2022-09-11T15:57:39.128Z,22.71
2022-09-11T16:00:05.562Z,22.69
2022-09-11T16:02:38.324Z,22.67
2022-09-11T16:05:04.707Z,22.69
2022-09-11T16:07:31.032Z,22.67
2022-09-11T16:09:58.905Z,22.65
2022-09-11T16:12:25.735Z,22.62
2022-09-11T16:14:52.537Z,22.64
2022-09-11T16:17:20.569Z,22.62
2022-09-11T16:19:47.535Z,22.63
2022-09-11T16:22:13.873Z,22.65
2022-09-11T16:24:40.191Z,22.73
2022-09-11T16:27:07.018Z,22.77
2022-09-11T16:29:56.586Z,22.77
2022-09-11T16:32:27.993Z,22.71
2022-09-11T16:34:55.108Z,22.74
2022-09-11T16:37:21.423Z,22.72
2022-09-11T16:39:49.669Z,22.68
2022-09-11T16:42:16.380Z,22.65
2022-09-11T16:44:42.692Z,22.60
2022-09-11T16:47:09.750Z,22.61
2022-09-11T16:49:50.357Z,22.59
2022-09-11T16:52:43.888Z,22.62
2022-09-11T16:55:10.213Z,22.59
2022-09-11T16:57:37.224Z,22.59
2022-09-11T17:00:04.155Z,22.65
2022-09-11T17:02:30.490Z,22.65
2022-09-11T17:04:56.799Z,22.61
2022-09-11T17:07:23.830Z,22.59
2022-09-11T17:09:50.151Z,22.58
2022-09-11T17:12:17.837Z,22.56
2022-09-11T17:14:44.162Z,22.56
2022-09-11T17:17:10.574Z,22.53
2022-09-11T17:19:36.885Z,22.53
2022-09-11T17:22:03.856Z,22.55
2022-09-11T17:24:32.030Z,22.55
2022-09-11T17:26:58.398Z,22.55
2022-09-11T17:29:24.711Z,22.61
2022-09-11T17:32:05.047Z,22.61
2022-09-11T17:34:32.061Z,22.63
2022-09-11T17:36:58.713Z,22.64
2022-09-11T17:39:25.051Z,22.66
2022-09-11T17:41:51.410Z,22.65
2022-09-11T17:44:17.744Z,22.51
2022-09-11T17:46:44.149Z,22.51
2022-09-11T17:49:10.521Z,22.59
2022-09-11T17:51:36.851Z,22.68
2022-09-11T17:54:03.174Z,22.61
2022-09-11T17:56:32.483Z,22.55
2022-09-11T17:58:59.642Z,22.28
2022-09-11T18:01:26.102Z,22.11
2022-09-11T18:03:53.017Z,22.10
2022-09-11T18:06:25.315Z,21.91
2022-09-11T18:08:51.693Z,21.83
2022-09-11T18:11:18.325Z,22.10
2022-09-11T18:13:44.722Z,22.27
2022-09-11T18:16:11.764Z,22.48
2022-09-11T18:18:39.365Z,22.55
2022-09-11T18:21:09.035Z,22.59
2022-09-11T18:23:39.751Z,22.62
2022-09-11T18:26:07.130Z,22.61
2022-09-11T18:28:34.021Z,22.65
2022-09-11T18:31:00.769Z,22.66
2022-09-11T18:33:27.119Z,22.68
2022-09-11T18:35:53.434Z,22.66
2022-09-11T18:38:20.045Z,22.63
2022-09-11T18:40:46.558Z,22.65
2022-09-11T18:43:13.135Z,22.65
2022-09-11T18:45:41.463Z,22.63
2022-09-11T18:48:07.838Z,22.62
2022-09-11T18:53:17.877Z,22.61
2022-09-11T18:55:44.189Z,22.61
2022-09-11T18:58:10.519Z,22.55
2022-09-11T19:00:37.166Z,22.53
2022-09-11T19:03:03.605Z,22.58
2022-09-11T19:05:31.100Z,22.58
2022-09-11T19:08:00.069Z,22.59
2022-09-11T19:10:26.619Z,22.58
2022-09-11T19:12:53.035Z,22.58
2022-09-11T19:15:19.366Z,22.58
2022-09-11T19:17:47.902Z,22.58
2022-09-11T19:20:15.657Z,22.57
2022-09-11T19:22:41.995Z,22.57
2022-09-11T19:25:09.953Z,22.58
2022-09-11T19:27:37.221Z,22.57
2022-09-11T19:30:06.113Z,22.57
2022-09-11T19:32:32.621Z,22.56
2022-09-11T19:35:00.198Z,22.55
2022-09-11T19:37:28.188Z,22.55
2022-09-11T19:39:54.662Z,22.54
2022-09-11T19:42:21.006Z,22.54
2022-09-11T19:44:47.783Z,22.54
2022-09-11T19:47:14.111Z,22.55
2022-09-11T19:49:40.432Z,22.54
2022-09-11T19:52:08.026Z,22.53
2022-09-11T19:54:35.515Z,22.53
2022-09-11T19:57:02.449Z,22.50
2022-09-11T19:59:28.764Z,22.53
2022-09-11T20:01:55.169Z,22.54
2022-09-11T20:04:21.541Z,22.52
2022-09-11T20:09:30.381Z,22.53
2022-09-11T20:11:57.543Z,22.52
2022-09-11T20:14:23.883Z,22.52
2022-09-11T20:16:50.326Z,22.51
2022-09-11T20:19:17.263Z,22.51
2022-09-11T20:21:43.592Z,22.51
2022-09-11T20:24:09.941Z,22.51
2022-09-11T20:26:36.270Z,22.50
2022-09-11T20:29:03.925Z,22.50
2022-09-11T20:31:31.567Z,22.50
2022-09-11T20:33:58.095Z,22.49
2022-09-11T20:36:24.407Z,22.51
2022-09-11T20:38:51.284Z,22.48
2022-09-11T20:41:17.638Z,22.50
2022-09-11T20:43:44.089Z,22.50
2022-09-11T20:46:10.480Z,22.50
2022-09-11T20:48:36.802Z,22.49
2022-09-11T20:51:03.653Z,22.49
2022-09-11T20:53:29.987Z,22.48
2022-09-11T20:56:03.150Z,22.49
2022-09-11T20:58:29.479Z,22.49
2022-09-11T21:00:56.657Z,22.48
2022-09-11T21:03:23.076Z,22.48
2022-09-11T21:05:49.377Z,22.48
2022-09-11T21:08:15.694Z,22.48
2022-09-11T21:10:42.003Z,22.46
2022-09-11T21:13:10.758Z,22.47
2022-09-11T21:15:46.530Z,22.46
2022-09-11T21:18:12.867Z,22.49
2022-09-11T21:20:39.293Z,22.49
2022-09-11T21:23:05.878Z,22.49
2022-09-11T21:25:32.193Z,22.49
2022-09-11T21:27:58.523Z,22.49
2022-09-11T21:30:24.841Z,22.49
2022-09-11T21:32:51.558Z,22.49
2022-09-11T21:35:17.891Z,22.48
2022-09-11T21:37:44.239Z,22.49
2022-09-11T21:40:10.635Z,22.50
2022-09-11T21:42:36.981Z,22.52
2022-09-11T21:45:03.330Z,22.51
2022-09-11T21:47:29.645Z,22.51
2022-09-11T21:49:55.958Z,22.50
2022-09-11T21:52:22.291Z,22.50
2022-09-11T21:54:51.042Z,22.48
2022-09-11T21:57:17.414Z,22.48
2022-09-11T21:59:43.739Z,22.49
2022-09-11T22:02:11.622Z,22.48
2022-09-11T22:04:37.966Z,22.48
2022-09-11T22:07:04.805Z,22.48
2022-09-11T22:09:31.145Z,22.48
2022-09-11T22:11:59.866Z,22.48
2022-09-11T22:14:26.422Z,22.45
2022-09-11T22:16:52.741Z,22.47
2022-09-11T22:19:19.255Z,22.47
2022-09-11T22:21:45.574Z,22.47
2022-09-11T22:24:11.883Z,22.49
2022-09-11T22:26:38.338Z,22.46
2022-09-11T22:29:04.649Z,22.46
2022-09-11T22:31:31.040Z,22.46
2022-09-11T22:33:57.574Z,22.46
2022-09-11T22:36:24.794Z,22.45
2022-09-11T22:38:51.370Z,22.45
2022-09-11T22:41:17.697Z,22.44
2022-09-11T22:43:44.167Z,22.44
2022-09-11T22:46:10.762Z,22.46
2022-09-11T22:48:37.528Z,22.52
2022-09-11T22:51:04.774Z,22.43
2022-09-11T22:53:31.097Z,22.42
2022-09-11T22:55:57.460Z,22.42
2022-09-11T22:58:23.817Z,22.42
2022-09-11T23:00:50.439Z,22.40
2022-09-11T23:03:16.822Z,22.43
2022-09-11T23:06:01.652Z,22.42
2022-09-11T23:08:28.534Z,22.41
2022-09-11T23:10:54.899Z,22.42
2022-09-11T23:13:21.255Z,22.41
2022-09-11T23:15:47.675Z,22.41
2022-09-11T23:18:13.982Z,22.41
2022-09-11T23:20:40.387Z,22.41
2022-09-11T23:23:06.696Z,22.41
2022-09-11T23:25:34.181Z,22.40
2022-09-11T23:28:00.494Z,22.42
2022-09-11T23:30:26.812Z,22.41
2022-09-11T23:32:53.354Z,22.41
2022-09-11T23:35:19.653Z,22.40
2022-09-11T23:37:45.995Z,22.40
2022-09-11T23:40:12.344Z,22.40
2022-09-11T23:42:38.669Z,22.40
2022-09-11T23:45:07.463Z,22.37
2022-09-11T23:47:33.769Z,22.37
2022-09-11T23:50:00.085Z,22.38
2022-09-11T23:52:26.450Z,22.37
2022-09-11T23:54:52.770Z,22.36
2022-09-11T23:57:19.074Z,22.37
2022-09-11T23:59:45.389Z,22.37
